Latest Weather Observations for Cape Otway

IDV60801

Issued at 2:02 pm EST Saturday 28 May 2016 (issued every 30 minutes, with the page automatically refreshed every 10 minutes)

About weather observations | Map of weather stations | Latest weather observations for VIC | Other Formats
Station Details ID: 090015 Name: CAPE OTWAY LIGHTHOUSE Lat: -38.86 Lon: 143.51 Height: 82.0 m
Data from the previous 72 hours. | See also: Recent months at Cape Otway
Date/Time
EST
Temp
°C
App
Temp
°C
Dew
Point
Rel
Hum
%
Delta-T
°C
Wind Press
QNH
hPa
Press
MSL
hPa
Rain
since 9 am
mm
Dir
 
Spd
km/h
Gust
km/h
Spd
kts
Gust
kts
28/02:00pm 12.2 5.1 6.3 67 2.8 SSW 33 46 18 25 1013.0 - 0.2
28/01:30pm 12.4 5.8 4.1 57 3.8 SSW 28 39 15 21 1013.0 - 0.2
28/01:00pm 12.6 5.5 3.8 55 4.0 SSW 30 39 16 21 1012.8 - 0.2
28/12:30pm 12.0 5.9 6.5 69 2.6 SW 28 44 15 24 1012.9 - 0.2
28/12:00pm 12.6 5.6 6.0 64 3.1 SSW 32 44 17 24 1012.8 1012.8 0.2
28/11:30am 12.8 5.3 3.7 54 4.1 SSW 32 43 17 23 1012.9 - 0.2
28/11:00am 12.3 5.1 5.0 61 3.4 SSW 32 43 17 23 1013.0 - 0.2
28/10:30am 12.2 4.6 5.8 65 3.0 SSW 35 50 19 27 1012.6 - 0.2
28/10:00am 12.3 5.5 5.0 61 3.4 SSW 30 39 16 21 1012.4 - 0.2
28/09:30am 11.7 6.1 7.0 73 2.3 SSW 26 37 14 20 1012.2 - 0.2
28/09:00am 10.7 6.3 6.6 76 1.9 SW 19 28 10 15 1012.1 1012.1 2.0
28/08:30am 12.2 7.7 6.9 70 2.5 SW 20 32 11 17 1011.7 - 2.0
28/08:00am 11.3 7.0 6.8 74 2.1 SW 19 26 10 14 1011.5 - 2.0
28/07:30am 11.9 6.4 7.4 74 2.2 SSW 26 43 14 23 1011.3 - 2.0
28/07:00am 11.7 8.2 7.0 73 2.3 SSW 15 24 8 13 1010.8 - 2.0
28/06:30am 11.2 6.2 6.3 72 2.3 SW 22 30 12 16 1010.4 - 2.0
28/06:00am 11.2 8.1 7.3 77 1.9 SSE 13 20 7 11 1010.2 1010.2 2.0
28/05:30am 11.8 8.6 6.9 72 2.3 WSW 13 20 7 11 1009.7 - 2.0
28/05:00am 11.6 8.5 5.5 66 2.8 WSW 11 15 6 8 1009.5 - 1.8
28/04:30am 10.7 8.4 7.4 80 1.6 ESE 9 19 5 10 1009.5 - 1.8
28/04:00am 10.9 6.0 7.0 77 1.9 SSW 22 33 12 18 1009.4 - 1.6
28/03:30am 10.3 7.6 7.5 83 1.3 ESE 11 19 6 10 1009.3 - 1.6
28/03:00am 10.9 6.6 7.8 81 1.5 SSW 20 28 11 15 1009.1 1009.1 1.2
28/02:30am 10.6 7.2 7.8 83 1.4 ESE 15 22 8 12 1009.3 - 1.2
28/02:00am 10.6 8.0 7.8 83 1.4 WSW 11 20 6 11 1009.1 - 1.2
28/01:30am 11.0 8.6 8.6 85 1.2 WSW 11 17 6 9 1008.9 - 1.2
28/01:00am 10.0 5.6 7.6 85 1.2 SSW 20 30 11 16 1009.0 - 1.0
28/12:30am 10.9 6.5 7.2 78 1.8 SSW 20 30 11 16 1008.9 - 0.0
28/12:00am 11.3 9.2 6.6 73 2.2 SSW 7 13 4 7 1008.8 1008.8 0.0
 
Date/Time
EST
Temp
°C
App
Temp
°C
Dew
Point
Rel
Hum
%
Delta-T
°C
Wind Press
QNH
hPa
Press
MSL
hPa
Rain
since 9 am
mm
Dir
 
Spd
km/h
Gust
km/h
Spd
kts
Gust
kts
27/11:30pm 9.5 8.2 6.0 79 1.6 NE 2 11 1 6 1008.9 - 0.0
27/11:00pm 9.5 7.3 5.5 76 1.8 NNE 6 7 3 4 1008.8 - 0.0
27/10:30pm 10.4 8.8 6.4 76 1.9 WNW 4 9 2 5 1008.9 - 0.0
27/10:00pm 10.8 7.9 6.4 74 2.1 W 11 17 6 9 1008.8 - 0.0
27/09:30pm 11.6 9.6 7.1 74 2.2 W 7 15 4 8 1008.6 - 0.0
27/09:00pm 10.5 8.1 5.3 70 2.4 ENE 7 13 4 7 1008.5 1008.5 0.0
27/08:30pm 11.6 8.7 6.3 70 2.5 ESE 11 19 6 10 1008.2 - 0.0
27/08:00pm 10.3 7.7 6.3 76 1.9 E 9 17 5 9 1007.9 - 0.0
27/07:30pm 9.9 7.8 6.8 81 1.5 E 7 13 4 7 1007.7 - 0.0
27/07:00pm 8.8 5.8 5.9 82 1.3 NNE 11 11 6 6 1007.4 - 0.0
27/06:30pm 9.0 6.0 6.1 82 1.3 NNE 11 13 6 7 1007.3 - 0.0
27/06:00pm 9.4 6.4 6.1 80 1.5 NE 11 11 6 6 1007.2 1007.2 0.0
27/05:30pm 9.8 7.2 6.3 79 1.6 NE 9 11 5 6 1006.9 - 0.0
27/05:00pm 10.2 7.7 6.7 79 1.7 NNE 9 11 5 6 1006.9 - 0.0
27/04:30pm 10.9 8.8 6.8 76 1.9 NNE 7 11 4 6 1006.8 - 0.0
27/04:00pm 11.1 9.0 6.8 75 2.0 NE 7 9 4 5 1006.7 - 0.0
27/03:30pm 11.7 10.2 6.8 72 2.3 E 4 9 2 5 1006.5 - 0.0
27/03:00pm 12.1 10.0 6.8 70 2.6 ESE 7 9 4 5 1006.4 1006.4 0.0
27/02:30pm 12.8 11.5 7.5 70 2.6 S 4 7 2 4 1006.4 - 0.0
27/02:00pm 13.1 10.8 7.3 68 2.8 WSW 9 11 5 6 1006.5 - 0.0
27/01:30pm 12.6 10.5 8.1 74 2.2 SW 9 13 5 7 1006.7 - 0.0
27/01:00pm 12.5 9.7 8.4 76 2.0 SW 13 17 7 9 1006.9 - 0.0
27/12:30pm 12.3 9.8 8.0 75 2.1 W 11 19 6 10 1007.0 - 0.0
27/12:00pm 11.4 8.0 7.5 77 1.9 NW 15 22 8 12 1007.1 1007.1 0.0
27/11:30am 11.7 8.7 7.8 77 1.9 WNW 13 20 7 11 1007.5 - 0.0
27/11:00am 12.5 10.0 8.2 75 2.1 NW 11 19 6 10 1007.6 - 0.0
27/10:30am 12.1 9.5 7.8 75 2.1 N 11 17 6 9 1007.7 - 0.0
27/10:00am 12.3 9.7 7.6 73 2.3 SW 11 15 6 8 1007.7 - 0.0
27/09:30am 10.3 7.3 7.7 84 1.3 NNW 13 19 7 10 1007.7 - 0.0
27/09:00am 10.2 6.8 7.6 84 1.3 NNW 15 20 8 11 1007.6 1007.6 2.6
27/08:30am 10.9 8.4 6.5 74 2.1 N 9 11 5 6 1007.5 - 2.6
27/08:00am 11.8 7.2 5.4 65 3.0 SSW 19 26 10 14 1007.2 - 2.6
27/07:30am 11.8 6.6 5.7 66 2.8 SSW 22 32 12 17 1007.0 - 2.6
27/07:00am 11.7 6.1 5.6 66 2.8 SSW 24 35 13 19 1006.9 - 2.6
27/06:30am 11.9 6.4 5.8 66 2.9 SSW 24 30 13 16 1006.8 - 2.6
27/06:00am 11.9 6.8 6.2 68 2.7 SSW 22 32 12 17 1006.6 1006.6 2.6
27/05:30am 11.8 6.3 5.9 67 2.8 SW 24 33 13 18 1006.6 - 2.6
27/05:00am 11.5 6.5 6.6 72 2.3 SW 22 28 12 15 1006.7 - 2.6
27/04:30am 11.3 4.9 6.8 74 2.1 SSW 30 37 16 20 1006.8 - 2.6
27/04:00am 11.4 6.6 7.3 76 2.0 SW 22 35 12 19 1006.7 - 2.6
27/03:30am 11.1 6.7 7.2 77 1.9 WSW 20 30 11 16 1006.6 - 2.6
27/03:00am 11.4 6.5 6.9 74 2.2 W 22 33 12 18 1006.8 1006.8 2.6
27/02:30am 10.7 6.0 7.8 82 1.4 SW 22 30 12 16 1006.9 - 2.6
27/02:06am 10.9 5.1 7.8 81 1.5 SW 28 46 15 25 1006.9 - 2.6
27/02:00am 10.7 5.6 7.6 81 1.5 SW 24 35 13 19 1006.9 - 2.6
27/01:30am 10.4 4.0 6.9 79 1.7 SW 30 39 16 21 1006.8 - 2.6
27/01:15am 11.3 4.8 6.6 73 2.2 SW 30 57 16 31 1006.7 - 2.0
27/01:00am 11.8 6.2 7.1 73 2.3 SW 26 33 14 18 1006.8 - 1.8
27/12:30am 11.6 4.8 6.9 73 2.2 SW 32 39 17 21 1007.0 - 1.8
27/12:00am 11.3 5.4 5.8 69 2.6 W 26 41 14 22 1007.0 1007.0 1.8
 
Date/Time
EST
Temp
°C
App
Temp
°C
Dew
Point
Rel
Hum
%
Delta-T
°C
Wind Press
QNH
hPa
Press
MSL
hPa
Rain
since 9 am
mm
Dir
 
Spd
km/h
Gust
km/h
Spd
kts
Gust
kts
26/11:30pm 11.7 5.6 6.6 71 2.4 SW 28 41 15 22 1007.1 - 1.8
26/11:00pm 12.0 4.5 6.5 69 2.6 SW 35 54 19 29 1007.0 - 1.8
26/10:30pm 11.9 4.8 6.6 70 2.5 SW 33 43 18 23 1007.0 - 1.8
26/10:00pm 11.1 4.4 5.8 70 2.5 WSW 30 54 16 29 1007.2 - 1.8
26/09:33pm 10.8 3.8 5.8 71 2.3 SSW 32 50 17 27 1007.2 - 1.8
26/09:30pm 11.1 3.8 5.4 68 2.6 SW 33 50 18 27 1007.1 - 1.8
26/09:27pm 12.2 5.4 6.7 69 2.6 SW 32 50 17 27 1007.1 - 1.8
26/09:00pm 11.9 5.0 6.4 69 2.6 SW 32 43 17 23 1007.0 1007.0 1.8
26/08:30pm 11.6 4.8 6.7 72 2.3 SW 32 41 17 22 1006.9 - 1.8
26/08:00pm 12.4 5.3 5.6 63 3.2 SW 32 43 17 23 1006.6 - 1.6
26/07:30pm 12.3 4.7 5.9 65 3.0 SW 35 48 19 26 1006.5 - 1.6
26/07:00pm 11.8 4.3 6.1 68 2.7 SSW 35 50 19 27 1006.3 - 1.6
26/06:30pm 12.2 4.9 5.6 64 3.1 SW 33 44 18 24 1006.2 - 1.6
26/06:00pm 12.1 3.9 5.0 62 3.3 SW 37 50 20 27 1005.8 1005.8 1.6
26/05:30pm 12.1 3.6 5.0 62 3.3 SW 39 46 21 25 1005.3 - 1.6
26/05:00pm 12.1 4.5 5.9 66 2.9 SW 35 50 19 27 1005.1 - 1.6
26/04:30pm 12.2 6.2 7.1 71 2.5 WSW 28 41 15 22 1004.9 - 1.6
26/04:00pm 11.8 5.4 6.9 72 2.3 SW 30 43 16 23 1004.7 - 1.6
26/03:30pm 12.2 4.4 8.1 76 2.0 SW 39 50 21 27 1004.5 - 1.6
26/03:06pm 12.4 5.9 8.3 76 2.0 SW 32 61 17 33 1004.3 - 1.6
26/03:00pm 12.1 5.5 7.8 75 2.1 SW 32 43 17 23 1004.3 1004.2 1.6
26/02:30pm 11.4 5.7 8.3 81 1.5 SSW 28 35 15 19 1004.1 - 1.6
26/02:08pm 11.2 3.9 8.6 84 1.3 SSW 37 56 20 30 1004.0 - 1.6
26/02:00pm 11.6 2.9 8.5 81 1.5 SSW 44 56 24 30 1003.8 - 1.4
26/01:57pm 11.7 3.0 8.4 80 1.6 SSW 44 54 24 29 1003.7 - 1.2
26/01:40pm 12.0 6.2 7.9 76 2.0 WSW 28 48 15 26 1004.0 - 1.0
26/01:30pm 12.1 6.4 8.4 78 1.8 SW 28 35 15 19 1004.0 - 1.0
26/01:00pm 11.1 8.0 8.8 86 1.1 WSW 15 20 8 11 1004.2 - 1.0
26/12:30pm 12.0 7.9 8.5 79 1.7 SW 20 32 11 17 1003.9 - 0.0
26/12:00pm 12.6 6.5 8.1 74 2.2 SW 30 39 16 21 1003.8 1003.7 0.0
26/11:30am 13.5 7.6 7.7 68 2.9 SSW 28 50 15 27 1003.9 - 0.0
26/11:29am 13.6 7.6 7.2 65 3.1 SSW 28 50 15 27 1004.0 - 0.0
26/11:00am 13.1 10.4 9.0 76 2.1 SW 13 19 7 10 1004.2 - 0.0
26/10:30am 12.0 7.6 7.5 74 2.2 SSW 20 32 11 17 1004.3 - 0.0
26/10:00am 12.5 8.9 8.2 75 2.1 SSW 17 24 9 13 1004.0 - 0.0
26/09:30am 11.9 8.4 8.9 82 1.5 SSW 17 20 9 11 1004.0 - 0.0
26/09:00am 11.9 9.6 8.9 82 1.5 SW 11 19 6 10 1004.0 1003.9 7.4
26/08:30am 11.8 9.8 8.8 82 1.5 SW 9 13 5 7 1004.1 - 7.4
26/08:00am 11.6 9.8 9.3 86 1.2 SW 9 15 5 8 1004.0 - 7.4
26/07:30am 11.2 9.4 9.5 89 0.9 SSW 9 15 5 8 1003.8 - 7.4
26/07:00am 10.9 9.1 9.5 91 0.7 SSW 9 15 5 8 1003.7 - 7.4
26/06:30am 11.0 7.7 9.6 91 0.7 SSW 17 30 9 16 1003.7 - 6.6
26/06:00am 10.3 6.5 9.1 92 0.6 SSW 19 26 10 14 1003.5 1003.4 5.8
26/05:30am 10.9 6.3 9.7 92 0.6 SSW 24 32 13 17 1003.4 - 5.4
26/05:00am 11.8 6.7 10.5 92 0.7 SSW 28 41 15 22 1003.1 - 4.6
26/04:30am 10.8 7.1 9.4 91 0.7 NNW 19 24 10 13 1002.9 - 4.4
26/04:00am 10.7 6.8 9.3 91 0.7 NNW 20 28 11 15 1003.1 - 4.4
26/03:30am 10.7 6.8 9.3 91 0.7 NNW 20 28 11 15 1003.1 - 4.2
26/03:00am 10.7 6.0 9.3 91 0.7 NNW 24 32 13 17 1003.4 1003.3 4.2
26/02:30am 10.8 6.1 9.2 90 0.8 NNW 24 33 13 18 1003.7 - 4.2
26/02:00am 10.8 6.5 9.2 90 0.8 NNW 22 30 12 16 1003.9 - 4.2
26/01:30am 10.8 6.4 9.1 89 0.8 NNW 22 32 12 17 1003.9 - 3.4
26/01:00am 10.9 6.1 9.0 88 0.9 N 24 35 13 19 1004.1 - 3.4
26/12:30am 11.1 7.0 8.8 86 1.1 NNW 20 33 11 18 1004.6 - 3.4
26/12:00am 11.2 5.3 8.9 86 1.2 N 30 44 16 24 1005.0 1005.0 3.4
 
Date/Time
EST
Temp
°C
App
Temp
°C
Dew
Point
Rel
Hum
%
Delta-T
°C
Wind Press
QNH
hPa
Press
MSL
hPa
Rain
since 9 am
mm
Dir
 
Spd
km/h
Gust
km/h
Spd
kts
Gust
kts
25/11:30pm 11.2 5.7 9.1 87 1.1 N 28 39 15 21 1005.2 - 3.4
25/11:00pm 11.1 5.2 9.2 88 1.0 N 30 41 16 22 1005.2 - 3.4
25/10:47pm 11.0 5.1 9.1 88 0.9 N 30 48 16 26 1005.1 - 3.4
25/10:30pm 11.1 4.9 9.2 88 1.0 NNW 32 44 17 24 1005.3 - 3.4
25/10:15pm 11.1 5.7 9.4 89 0.9 NNW 28 48 15 26 1005.5 - 3.4
25/10:00pm 11.1 6.1 9.4 89 0.9 NNW 26 43 14 23 1005.5 - 3.4
25/09:30pm 11.1 4.7 9.2 88 1.0 N 33 57 18 31 1005.4 - 3.4
25/09:00pm 11.2 4.0 9.3 88 1.0 N 37 61 20 33 1005.4 1005.4 2.2
25/08:30pm 11.3 5.1 9.2 87 1.1 N 32 57 17 31 1005.6 - 1.2
25/08:00pm 11.3 5.4 9.0 86 1.1 NNW 30 52 16 28 1005.7 - 0.4
25/07:37pm 11.4 5.1 8.8 84 1.3 N 32 50 17 27 1005.9 - 0.4
25/07:30pm 11.5 5.5 8.7 83 1.4 N 30 46 16 25 1006.0 - 0.2
25/07:01pm 11.9 5.9 8.7 81 1.6 N 30 48 16 26 1006.2 - 0.0
25/07:00pm 11.9 5.5 8.7 81 1.6 N 32 48 17 26 1006.2 - 0.0
25/06:30pm 11.8 6.9 8.6 81 1.6 NNW 24 39 13 21 1006.2 - 0.0
25/06:00pm 11.5 6.3 8.7 83 1.4 NNW 26 37 14 20 1006.2 1006.2 0.0
25/05:30pm 11.7 5.3 8.6 81 1.5 N 32 48 17 26 1005.9 - 0.0
25/05:00pm 12.1 6.3 8.0 76 2.0 N 28 41 15 22 1005.7 - 0.0
25/04:34pm 12.3 5.7 7.6 73 2.3 N 32 52 17 28 1005.9 - 0.0
25/04:30pm 12.4 5.6 7.7 73 2.3 N 33 48 18 26 1005.9 - 0.0
25/04:00pm 12.6 6.3 7.3 70 2.6 N 30 46 16 25 1006.3 - 0.0
25/03:56pm 12.7 6.4 7.4 70 2.6 N 30 48 16 26 1006.3 - 0.0
25/03:30pm 13.1 7.8 6.9 66 3.0 NNW 24 41 13 22 1006.4 - 0.0
25/03:00pm 13.1 8.8 6.9 66 3.0 NW 19 30 10 16 1006.7 1006.7 0.0
25/02:30pm 13.3 8.7 6.6 64 3.2 NW 20 35 11 19 1007.2 - 0.0

Other Formats:

Comma delimited format used in spreadsheet applications
http://www.bom.gov.au/fwo/IDV60801/IDV60801.94842.axf

JavaScript Object Notation format (JSON) in row-major order
http://www.bom.gov.au/fwo/IDV60801/IDV60801.94842.json